createdAt,value
2023-05-23T00:00:15.169Z,95553.00
2023-05-23T00:01:16.161Z,95551.00
2023-05-23T00:02:16.318Z,95549.00
2023-05-23T00:03:16.404Z,95545.00
2023-05-23T00:04:16.206Z,95547.00
2023-05-23T00:05:15.142Z,95547.00
2023-05-23T00:06:16.143Z,95547.00
2023-05-23T00:07:15.171Z,95547.00
2023-05-23T00:08:15.253Z,95551.00
2023-05-23T00:09:16.299Z,95553.00
2023-05-23T00:10:15.370Z,95555.00
2023-05-23T00:11:16.420Z,95555.00
2023-05-23T00:12:16.496Z,95558.00
2023-05-23T00:13:15.529Z,95558.00
2023-05-23T00:14:15.583Z,95557.00
2023-05-23T00:15:16.619Z,95562.00
2023-05-23T00:16:16.698Z,95558.00
2023-05-23T00:17:16.753Z,95560.00
2023-05-23T00:18:16.951Z,95562.00
2023-05-23T00:19:15.916Z,95562.00
2023-05-23T00:20:15.951Z,95560.00
2023-05-23T00:21:16.027Z,95562.00
2023-05-23T00:22:16.057Z,95562.00
2023-05-23T00:23:16.132Z,95564.00
2023-05-23T00:24:17.149Z,95564.00
2023-05-23T00:25:17.221Z,95564.00
2023-05-23T00:26:16.274Z,95566.00
2023-05-23T00:27:17.334Z,95564.00
2023-05-23T00:28:16.374Z,95566.00
2023-05-23T00:29:17.433Z,95566.00
2023-05-23T00:30:16.443Z,95566.00
2023-05-23T00:31:16.548Z,95570.00
2023-05-23T00:32:17.538Z,95574.00
2023-05-23T00:33:17.605Z,95574.00
2023-05-23T00:34:18.054Z,95574.00
2023-05-23T00:35:16.650Z,95576.00
2023-05-23T00:36:17.707Z,95578.00
2023-05-23T00:37:16.776Z,95574.00
2023-05-23T00:38:17.844Z,95578.00
2023-05-23T00:39:17.924Z,95576.00
2023-05-23T00:40:17.968Z,95574.00
2023-05-23T00:41:18.020Z,95578.00
2023-05-23T00:42:18.080Z,95574.00
2023-05-23T00:43:17.134Z,95576.00
2023-05-23T00:44:18.223Z,95578.00
2023-05-23T00:45:18.250Z,95578.00
2023-05-23T00:46:18.338Z,95578.00
2023-05-23T00:47:18.383Z,95578.00
2023-05-23T00:48:18.417Z,95580.00
2023-05-23T00:49:18.483Z,95578.00
2023-05-23T00:50:17.670Z,95576.00
2023-05-23T00:51:18.592Z,95576.00
2023-05-23T00:52:18.650Z,95578.00
2023-05-23T00:53:18.721Z,95578.00
2023-05-23T00:54:17.752Z,95578.00
2023-05-23T00:55:17.786Z,95582.00
2023-05-23T00:56:18.824Z,95578.00
2023-05-23T00:57:17.884Z,95580.00
2023-05-23T00:58:18.922Z,95580.00
2023-05-23T00:59:18.975Z,95582.00
2023-05-23T01:00:19.036Z,95582.00
2023-05-23T01:01:18.118Z,95580.00
2023-05-23T01:02:19.174Z,95582.00
2023-05-23T01:03:19.237Z,95584.00
2023-05-23T01:04:19.256Z,95584.00
2023-05-23T01:05:19.443Z,95586.00
2023-05-23T01:06:18.340Z,95586.00
2023-05-23T01:07:19.381Z,95586.00
2023-05-23T01:08:18.454Z,95588.00
2023-05-23T01:09:18.491Z,95588.00
2023-05-23T01:10:19.545Z,95590.00
2023-05-23T01:11:19.581Z,95588.00
2023-05-23T01:12:18.653Z,95586.00
2023-05-23T01:13:18.681Z,95586.00
2023-05-23T01:14:19.706Z,95586.00
2023-05-23T01:15:18.759Z,95584.00
2023-05-23T01:16:19.903Z,95586.00
2023-05-23T01:17:19.902Z,95586.00
2023-05-23T01:18:19.930Z,95584.00
2023-05-23T01:19:19.041Z,95582.00
2023-05-23T01:20:20.048Z,95586.00
2023-05-23T01:21:20.205Z,95582.00
2023-05-23T01:22:19.138Z,95582.00
2023-05-23T01:23:19.187Z,95580.00
2023-05-23T01:24:19.232Z,95580.00
2023-05-23T01:25:20.269Z,95582.00
2023-05-23T01:26:20.351Z,95586.00
2023-05-23T01:27:19.395Z,95582.00
2023-05-23T01:28:20.430Z,95584.00
2023-05-23T01:29:20.472Z,95586.00
2023-05-23T01:30:20.509Z,95590.00
2023-05-23T01:31:19.590Z,95590.00
2023-05-23T01:32:20.553Z,95592.00
2023-05-23T01:33:19.615Z,95594.00
2023-05-23T01:34:20.709Z,95594.00
2023-05-23T01:35:20.709Z,95596.00
2023-05-23T01:36:19.773Z,95598.00
2023-05-23T01:37:19.961Z,95596.00
2023-05-23T01:38:20.859Z,95594.00
2023-05-23T01:39:20.918Z,95594.00
2023-05-23T01:40:20.974Z,95596.00
2023-05-23T01:41:20.022Z,95596.00
2023-05-23T01:42:20.069Z,95594.00
2023-05-23T01:43:21.132Z,95596.00
2023-05-23T01:44:21.250Z,95594.00
2023-05-23T01:45:21.079Z,95594.00
2023-05-23T01:46:21.188Z,95586.00
2023-05-23T01:47:21.159Z,95590.00
2023-05-23T01:48:20.224Z,95588.00
2023-05-23T01:49:20.226Z,95592.00
2023-05-23T01:50:21.253Z,95594.00
2023-05-23T01:51:20.289Z,95590.00
2023-05-23T01:52:20.352Z,95594.00
2023-05-23T01:53:20.490Z,95590.00
2023-05-23T01:54:20.403Z,95594.00
2023-05-23T01:55:21.423Z,95590.00
2023-05-23T01:56:20.465Z,95592.00
2023-05-23T01:57:21.530Z,95592.00
2023-05-23T01:58:20.515Z,95592.00
2023-05-23T01:59:20.534Z,95590.00
2023-05-23T02:00:20.565Z,95590.00
2023-05-23T02:01:21.610Z,95590.00
2023-05-23T02:02:20.660Z,95590.00
2023-05-23T02:03:20.714Z,95588.00
2023-05-23T02:04:20.538Z,95592.00
2023-05-23T02:05:20.542Z,95590.00
2023-05-23T02:06:21.557Z,95590.00
2023-05-23T02:07:21.565Z,95592.00
2023-05-23T02:08:21.548Z,95592.00
2023-05-23T02:09:21.668Z,95594.00
2023-05-23T02:10:21.589Z,95598.00
2023-05-23T02:11:21.600Z,95596.00
2023-05-23T02:12:21.598Z,95596.00
2023-05-23T02:13:20.623Z,95594.00
2023-05-23T02:14:21.624Z,95592.00
2023-05-23T02:15:20.657Z,95592.00
2023-05-23T02:16:20.724Z,95592.00
2023-05-23T02:17:20.725Z,95590.00
2023-05-23T02:18:21.742Z,95590.00
2023-05-23T02:19:21.860Z,95588.00
2023-05-23T02:20:20.835Z,95586.00
2023-05-23T02:21:20.869Z,95584.00
2023-05-23T02:22:20.957Z,95582.00
2023-05-23T02:23:20.925Z,95588.00
2023-05-23T02:24:21.953Z,95588.00
2023-05-23T02:25:22.102Z,95588.00
2023-05-23T02:26:21.009Z,95590.00
2023-05-23T02:27:21.044Z,95588.00
2023-05-23T02:28:21.145Z,95588.00
2023-05-23T02:29:21.054Z,95590.00
2023-05-23T02:30:22.087Z,95592.00
2023-05-23T02:31:22.177Z,95594.00
2023-05-23T02:32:22.150Z,95598.00
2023-05-23T02:33:22.169Z,95598.00
2023-05-23T02:34:21.176Z,95596.00
2023-05-23T02:35:21.192Z,95600.00
2023-05-23T02:36:22.190Z,95602.00
2023-05-23T02:37:22.227Z,95605.00
2023-05-23T02:38:22.272Z,95605.00
2023-05-23T02:39:21.256Z,95605.00
2023-05-23T02:40:22.261Z,95602.00
2023-05-23T02:41:21.375Z,95605.00
2023-05-23T02:42:22.267Z,95605.00
2023-05-23T02:43:21.267Z,95604.00
2023-05-23T02:44:21.266Z,95605.00
2023-05-23T02:45:22.272Z,95605.00
2023-05-23T02:46:22.288Z,95605.00
2023-05-23T02:47:22.325Z,95607.00
2023-05-23T02:48:22.256Z,95607.00
2023-05-23T02:49:22.266Z,95609.00
2023-05-23T02:50:22.260Z,95611.00
2023-05-23T02:51:22.268Z,95613.00
2023-05-23T02:52:21.257Z,95613.00
2023-05-23T02:53:22.247Z,95615.00
2023-05-23T02:54:22.229Z,95615.00
2023-05-23T02:55:22.239Z,95613.00
2023-05-23T02:56:22.334Z,95615.00
2023-05-23T02:57:22.358Z,95613.00
2023-05-23T02:58:22.273Z,95611.00
2023-05-23T02:59:22.236Z,95617.00
2023-05-23T03:00:21.267Z,95615.00
2023-05-23T03:01:21.247Z,95617.00
2023-05-23T03:02:21.239Z,95619.00
2023-05-23T03:03:22.271Z,95619.00
2023-05-23T03:04:22.245Z,95619.00
2023-05-23T03:05:22.216Z,95623.00
2023-05-23T03:06:21.227Z,95623.00
2023-05-23T03:07:28.168Z,95625.00
2023-05-23T03:08:22.205Z,95625.00
2023-05-23T03:09:21.196Z,95625.00
2023-05-23T03:10:22.182Z,95629.00
2023-05-23T03:11:22.189Z,95623.00
2023-05-23T03:12:21.171Z,95625.00
2023-05-23T03:13:21.327Z,95623.00
2023-05-23T03:14:21.163Z,95619.00
2023-05-23T03:15:22.155Z,95617.00
2023-05-23T03:16:22.203Z,95619.00
2023-05-23T03:17:22.190Z,95619.00
2023-05-23T03:18:22.135Z,95617.00
2023-05-23T03:19:22.165Z,95617.00
2023-05-23T03:20:21.120Z,95619.00
2023-05-23T03:21:22.106Z,95619.00
2023-05-23T03:22:21.109Z,95619.00
2023-05-23T03:23:21.105Z,95621.00
2023-05-23T03:24:21.172Z,95625.00
2023-05-23T03:25:22.122Z,95625.00
2023-05-23T03:26:22.076Z,95627.00
2023-05-23T03:27:21.070Z,95627.00
2023-05-23T03:28:21.071Z,95625.00
2023-05-23T03:29:22.185Z,95623.00
2023-05-23T03:30:21.054Z,95623.00
2023-05-23T03:31:22.072Z,95623.00
2023-05-23T03:32:22.052Z,95625.00
2023-05-23T03:33:22.027Z,95623.00
2023-05-23T03:34:21.023Z,95623.00
2023-05-23T03:35:21.020Z,95627.00
2023-05-23T03:36:22.022Z,95625.00
2023-05-23T03:37:22.035Z,95625.00
2023-05-23T03:38:22.010Z,95627.00
2023-05-23T03:39:21.993Z,95625.00
2023-05-23T03:40:20.988Z,95627.00
2023-05-23T03:41:21.981Z,95625.00
2023-05-23T03:42:22.001Z,95625.00
2023-05-23T03:43:20.993Z,95625.00
2023-05-23T03:44:21.963Z,95623.00
2023-05-23T03:45:22.093Z,95627.00
2023-05-23T03:46:21.031Z,95627.00
2023-05-23T03:47:20.948Z,95625.00
2023-05-23T03:48:20.964Z,95627.00
2023-05-23T03:49:21.928Z,95625.00
2023-05-23T03:50:20.924Z,95627.00
2023-05-23T03:51:21.930Z,95629.00
2023-05-23T03:52:21.919Z,95631.00
2023-05-23T03:53:21.905Z,95631.00
2023-05-23T03:54:21.895Z,95633.00
2023-05-23T03:55:21.891Z,95633.00
2023-05-23T03:56:20.893Z,95633.00
2023-05-23T03:57:20.877Z,95635.00
2023-05-23T03:58:20.869Z,95635.00
2023-05-23T03:59:20.878Z,95635.00
2023-05-23T04:00:20.861Z,95633.00
2023-05-23T04:01:20.982Z,95635.00
2023-05-23T04:02:21.965Z,95633.00
2023-05-23T04:03:21.985Z,95637.00
2023-05-23T04:04:21.914Z,95637.00
2023-05-23T04:05:20.830Z,95641.00
2023-05-23T04:06:21.829Z,95639.00
2023-05-23T04:07:21.095Z,95641.00
2023-05-23T04:08:21.813Z,95641.00
2023-05-23T04:09:21.800Z,95645.00
2023-05-23T04:10:20.825Z,95647.00
2023-05-23T04:11:20.799Z,95651.00
2023-05-23T04:12:21.781Z,95651.00
2023-05-23T04:13:21.776Z,95656.00
2023-05-23T04:14:21.767Z,95652.00
2023-05-23T04:15:21.840Z,95654.00
2023-05-23T04:16:20.765Z,95651.00
2023-05-23T04:17:21.975Z,95649.00
2023-05-23T04:18:20.745Z,95649.00
2023-05-23T04:19:20.735Z,95652.00
2023-05-23T04:20:20.721Z,95651.00
2023-05-23T04:21:21.734Z,95652.00
2023-05-23T04:22:21.737Z,95652.00
2023-05-23T04:23:20.745Z,95654.00
2023-05-23T04:24:21.724Z,95656.00
2023-05-23T04:25:20.698Z,95666.00
2023-05-23T04:26:20.684Z,95666.00
2023-05-23T04:27:20.704Z,95668.00
2023-05-23T04:28:20.689Z,95666.00
2023-05-23T04:29:21.692Z,95670.00
2023-05-23T04:30:20.669Z,95670.00
2023-05-23T04:31:20.722Z,95668.00
2023-05-23T04:32:21.680Z,95668.00
2023-05-23T04:33:20.784Z,95666.00
2023-05-23T04:34:21.652Z,95668.00
2023-05-23T04:35:21.644Z,95666.00
2023-05-23T04:36:21.634Z,95672.00
2023-05-23T04:37:21.631Z,95670.00
2023-05-23T04:38:21.625Z,95670.00
2023-05-23T04:39:20.603Z,95672.00
2023-05-23T04:40:20.598Z,95672.00
2023-05-23T04:41:21.623Z,95670.00
2023-05-23T04:42:21.586Z,95674.00
2023-05-23T04:43:21.594Z,95672.00
2023-05-23T04:44:20.573Z,95674.00
2023-05-23T04:45:21.569Z,95674.00
2023-05-23T04:46:20.631Z,95676.00
2023-05-23T04:47:20.551Z,95676.00
2023-05-23T04:48:21.576Z,95670.00
2023-05-23T04:49:20.681Z,95678.00
2023-05-23T04:50:21.540Z,95678.00
2023-05-23T04:51:21.539Z,95682.00
2023-05-23T04:52:21.533Z,95682.00
2023-05-23T04:53:21.511Z,95684.00
2023-05-23T04:54:20.517Z,95688.00
2023-05-23T04:55:21.527Z,95682.00
2023-05-23T04:56:22.075Z,95690.00
2023-05-23T04:57:21.500Z,95690.00
2023-05-23T04:58:21.502Z,95690.00
2023-05-23T04:59:21.491Z,95692.00
2023-05-23T05:00:21.515Z,95692.00
2023-05-23T05:01:22.244Z,95692.00
2023-05-23T05:02:22.082Z,95692.00
2023-05-23T05:03:20.461Z,95688.00
2023-05-23T05:04:20.492Z,95694.00
2023-05-23T05:05:21.577Z,95694.00
2023-05-23T05:06:21.482Z,95698.00
2023-05-23T05:07:20.438Z,95700.00
2023-05-23T05:08:21.435Z,95702.00
2023-05-23T05:09:21.416Z,95704.00
2023-05-23T05:10:21.411Z,95704.00
2023-05-23T05:11:21.398Z,95702.00
2023-05-23T05:12:20.420Z,95704.00
2023-05-23T05:13:20.398Z,95705.00
2023-05-23T05:14:20.387Z,95704.00
2023-05-23T05:15:20.384Z,95700.00
2023-05-23T05:16:20.457Z,95705.00
2023-05-23T05:17:21.421Z,95704.00
2023-05-23T05:18:21.353Z,95704.00
2023-05-23T05:19:20.360Z,95704.00
2023-05-23T05:20:21.385Z,95704.00
2023-05-23T05:21:21.480Z,95702.00
2023-05-23T05:22:20.337Z,95702.00
2023-05-23T05:23:20.301Z,95702.00
2023-05-23T05:24:21.304Z,95702.00
2023-05-23T05:25:20.304Z,95705.00
2023-05-23T05:26:21.307Z,95705.00
2023-05-23T05:27:21.295Z,95704.00
2023-05-23T05:28:21.282Z,95704.00
2023-05-23T05:29:21.314Z,95705.00
2023-05-23T05:30:21.284Z,95698.00
2023-05-23T05:31:21.281Z,95702.00
2023-05-23T05:32:20.337Z,95700.00
2023-05-23T05:33:20.266Z,95700.00
2023-05-23T05:34:21.235Z,95702.00
2023-05-23T05:35:21.256Z,95700.00
2023-05-23T05:36:21.235Z,95700.00
2023-05-23T05:37:21.399Z,95704.00
2023-05-23T05:38:21.251Z,95702.00
2023-05-23T05:39:21.224Z,95705.00
2023-05-23T05:40:21.242Z,95704.00
2023-05-23T05:41:21.265Z,95705.00
2023-05-23T05:42:21.205Z,95705.00
2023-05-23T05:43:21.190Z,95707.00
2023-05-23T05:44:20.271Z,95709.00
2023-05-23T05:45:21.324Z,95709.00
2023-05-23T05:46:21.369Z,95707.00
2023-05-23T05:47:21.174Z,95711.00
2023-05-23T05:48:20.156Z,95709.00
2023-05-23T05:49:21.149Z,95711.00
2023-05-23T05:50:21.149Z,95709.00
2023-05-23T05:51:21.155Z,95709.00
2023-05-23T05:52:21.150Z,95709.00
2023-05-23T05:53:21.245Z,95711.00
2023-05-23T05:54:21.161Z,95709.00
2023-05-23T05:55:21.130Z,95707.00
2023-05-23T05:56:21.135Z,95707.00
2023-05-23T05:57:21.137Z,95705.00
2023-05-23T05:58:21.141Z,95705.00
2023-05-23T05:59:21.225Z,95711.00
2023-05-23T06:00:21.088Z,95707.00
2023-05-23T06:01:21.105Z,95709.00
2023-05-23T06:02:20.693Z,95713.00
2023-05-23T06:03:21.147Z,95715.00
2023-05-23T06:04:21.137Z,95715.00
2023-05-23T06:05:21.054Z,95721.00
2023-05-23T06:06:21.051Z,95723.00
2023-05-23T06:07:21.094Z,95719.00
2023-05-23T06:08:20.328Z,95721.00
2023-05-23T06:09:20.397Z,95725.00
2023-05-23T06:10:20.472Z,95725.00
2023-05-23T06:11:20.254Z,95725.00
2023-05-23T06:12:21.317Z,95723.00
2023-05-23T06:13:21.299Z,95723.00
2023-05-23T06:14:21.419Z,95719.00
2023-05-23T06:15:21.552Z,95723.00
2023-05-23T06:16:20.681Z,95725.00
2023-05-23T06:17:21.853Z,95717.00
2023-05-23T06:18:21.645Z,95721.00
2023-05-23T06:19:21.663Z,95723.00
2023-05-23T06:20:21.574Z,95721.00
2023-05-23T06:21:20.532Z,95723.00
2023-05-23T06:22:21.577Z,95723.00
2023-05-23T06:23:21.549Z,95725.00
2023-05-23T06:24:20.659Z,95729.00
2023-05-23T06:25:21.648Z,95735.00
2023-05-23T06:26:21.572Z,95737.00
2023-05-23T06:27:27.502Z,95737.00
2023-05-23T06:28:20.459Z,95737.00
2023-05-23T06:29:21.449Z,95737.00
2023-05-23T06:30:21.462Z,95737.00
2023-05-23T06:31:21.469Z,95739.00
2023-05-23T06:32:21.481Z,95739.00
2023-05-23T06:33:21.433Z,95741.00
2023-05-23T06:34:21.425Z,95735.00
2023-05-23T06:35:20.409Z,95739.00
2023-05-23T06:36:21.419Z,95737.00
2023-05-23T06:37:21.473Z,95739.00
2023-05-23T06:38:21.401Z,95739.00
2023-05-23T06:39:20.380Z,95739.00
2023-05-23T06:40:20.394Z,95741.00
2023-05-23T06:41:20.513Z,95741.00
2023-05-23T06:42:21.371Z,95741.00
2023-05-23T06:43:21.369Z,95745.00
2023-05-23T06:44:20.365Z,95747.00
2023-05-23T06:45:21.359Z,95747.00
2023-05-23T06:46:21.390Z,95749.00
2023-05-23T06:47:21.370Z,95751.00
2023-05-23T06:48:21.320Z,95749.00
2023-05-23T06:49:21.312Z,95751.00
2023-05-23T06:50:21.321Z,95754.00
2023-05-23T06:51:21.368Z,95754.00
2023-05-23T06:52:20.291Z,95762.00
2023-05-23T06:53:21.562Z,95758.00
2023-05-23T06:54:21.283Z,95758.00
2023-05-23T06:55:21.369Z,95758.00
2023-05-23T06:56:21.413Z,95756.00
2023-05-23T06:57:20.584Z,95760.00
2023-05-23T06:58:20.574Z,95758.00
2023-05-23T06:59:21.578Z,95756.00
2023-05-23T07:00:20.626Z,95756.00
2023-05-23T07:01:21.670Z,95760.00
2023-05-23T07:02:20.714Z,95758.00
2023-05-23T07:03:21.666Z,95758.00
2023-05-23T07:04:21.646Z,95754.00
2023-05-23T07:05:21.700Z,95758.00
2023-05-23T07:06:20.690Z,95762.00
2023-05-23T07:07:20.649Z,95764.00
2023-05-23T07:08:20.661Z,95764.00
2023-05-23T07:09:21.671Z,95766.00
2023-05-23T07:10:21.677Z,95766.00
2023-05-23T07:11:20.697Z,95768.00
2023-05-23T07:12:20.706Z,95764.00
2023-05-23T07:13:21.823Z,95766.00
2023-05-23T07:14:21.693Z,95766.00
2023-05-23T07:15:20.714Z,95770.00
2023-05-23T07:16:20.762Z,95770.00
2023-05-23T07:17:20.835Z,95772.00
2023-05-23T07:18:21.738Z,95774.00
2023-05-23T07:19:20.784Z,95774.00
2023-05-23T07:20:20.757Z,95780.00
2023-05-23T07:21:21.763Z,95780.00
2023-05-23T07:22:21.772Z,95784.00
2023-05-23T07:23:21.829Z,95790.00
2023-05-23T07:24:22.855Z,95790.00
2023-05-23T07:25:20.819Z,95796.00
2023-05-23T07:26:21.791Z,95803.00
2023-05-23T07:27:21.790Z,95801.00
2023-05-23T07:28:20.781Z,95805.00
2023-05-23T07:29:21.919Z,95805.00
2023-05-23T07:30:21.781Z,95807.00
2023-05-23T07:31:21.892Z,95805.00
2023-05-23T07:32:21.770Z,95807.00
2023-05-23T07:33:21.786Z,95807.00
2023-05-23T07:34:21.745Z,95809.00
2023-05-23T07:35:21.755Z,95809.00
2023-05-23T07:36:21.748Z,95811.00
2023-05-23T07:37:21.748Z,95813.00
2023-05-23T07:38:21.743Z,95815.00
2023-05-23T07:39:20.727Z,95811.00
2023-05-23T07:40:20.725Z,95813.00
2023-05-23T07:41:20.733Z,95811.00
2023-05-23T07:42:21.694Z,95811.00
2023-05-23T07:43:21.697Z,95811.00
2023-05-23T07:44:24.655Z,95811.00
2023-05-23T07:45:21.691Z,95811.00
2023-05-23T07:46:21.717Z,95809.00
2023-05-23T07:47:21.747Z,95809.00
2023-05-23T07:48:22.109Z,95809.00
2023-05-23T07:49:21.671Z,95807.00
2023-05-23T07:50:21.660Z,95807.00
2023-05-23T07:51:21.660Z,95807.00
2023-05-23T07:52:20.639Z,95805.00
2023-05-23T07:53:22.098Z,95807.00
2023-05-23T07:54:21.638Z,95805.00
2023-05-23T07:55:21.609Z,95807.00
2023-05-23T07:56:20.621Z,95807.00
2023-05-23T07:57:20.609Z,95809.00
2023-05-23T07:58:20.596Z,95807.00
2023-05-23T07:59:20.582Z,95807.00
2023-05-23T08:00:21.586Z,95805.00
2023-05-23T08:01:20.600Z,95805.00
2023-05-23T08:02:20.630Z,95809.00
2023-05-23T08:03:21.630Z,95807.00
2023-05-23T08:04:21.599Z,95807.00
2023-05-23T08:05:21.537Z,95807.00
2023-05-23T08:06:20.532Z,95809.00
2023-05-23T08:07:21.539Z,95807.00
2023-05-23T08:08:21.523Z,95809.00
2023-05-23T08:09:21.532Z,95807.00
2023-05-23T08:10:21.538Z,95811.00
2023-05-23T08:11:20.524Z,95813.00
2023-05-23T08:12:20.564Z,95813.00
2023-05-23T08:13:21.577Z,95815.00
2023-05-23T08:14:20.573Z,95813.00
2023-05-23T08:15:21.592Z,95813.00
2023-05-23T08:16:21.703Z,95817.00
2023-05-23T08:17:20.840Z,95819.00
2023-05-23T08:18:21.744Z,95821.00
2023-05-23T08:19:21.784Z,95821.00
2023-05-23T08:20:21.775Z,95823.00
2023-05-23T08:21:20.800Z,95825.00
2023-05-23T08:22:21.830Z,95829.00
2023-05-23T08:23:20.867Z,95827.00
2023-05-23T08:24:20.872Z,95827.00
2023-05-23T08:25:21.896Z,95831.00
2023-05-23T08:26:20.931Z,95833.00
2023-05-23T08:27:20.936Z,95837.00
2023-05-23T08:28:21.984Z,95837.00
2023-05-23T08:29:22.031Z,95841.00
2023-05-23T08:30:22.090Z,95843.00
2023-05-23T08:31:22.104Z,95843.00
2023-05-23T08:32:22.271Z,95843.00
2023-05-23T08:33:21.260Z,95847.00
2023-05-23T08:34:22.221Z,95851.00
2023-05-23T08:35:21.250Z,95851.00
2023-05-23T08:36:22.292Z,95854.00
2023-05-23T08:37:22.330Z,95856.00
2023-05-23T08:38:22.352Z,95858.00
2023-05-23T08:39:22.385Z,95856.00
2023-05-23T08:40:21.603Z,95860.00
2023-05-23T08:41:22.469Z,95860.00
2023-05-23T08:42:22.515Z,95860.00
2023-05-23T08:43:22.627Z,95858.00
2023-05-23T08:44:22.110Z,95854.00
2023-05-23T08:45:21.607Z,95854.00
2023-05-23T08:46:22.644Z,95853.00
2023-05-23T08:47:21.643Z,95853.00
2023-05-23T08:48:22.650Z,95851.00
2023-05-23T08:49:22.699Z,95853.00
2023-05-23T08:50:23.420Z,95853.00
2023-05-23T08:51:22.629Z,95854.00
2023-05-23T08:52:22.646Z,95854.00
2023-05-23T08:53:22.719Z,95854.00
2023-05-23T08:54:22.653Z,95851.00
2023-05-23T08:55:22.684Z,95851.00
2023-05-23T08:56:22.672Z,95853.00
2023-05-23T08:57:21.702Z,95849.00
2023-05-23T08:58:22.131Z,95847.00
2023-05-23T08:59:22.730Z,95851.00
2023-05-23T09:00:22.732Z,95853.00
2023-05-23T09:01:22.772Z,95854.00
2023-05-23T09:02:22.826Z,95849.00
2023-05-23T09:03:21.719Z,95853.00
2023-05-23T09:04:21.733Z,95856.00
2023-05-23T09:05:21.808Z,95856.00
2023-05-23T09:06:22.730Z,95858.00
2023-05-23T09:07:22.752Z,95854.00
2023-05-23T09:08:22.749Z,95858.00
2023-05-23T09:09:21.740Z,95856.00
2023-05-23T09:10:21.740Z,95856.00
2023-05-23T09:11:22.727Z,95856.00
2023-05-23T09:12:22.733Z,95856.00
2023-05-23T09:13:22.760Z,95856.00
2023-05-23T09:14:21.766Z,95856.00
2023-05-23T09:15:22.746Z,95856.00
2023-05-23T09:16:22.924Z,95858.00
2023-05-23T09:17:21.812Z,95856.00
2023-05-23T09:18:21.794Z,95860.00
2023-05-23T09:19:22.846Z,95860.00
2023-05-23T09:20:21.839Z,95862.00
2023-05-23T09:21:22.841Z,95862.00
2023-05-23T09:22:22.821Z,95866.00
2023-05-23T09:23:22.839Z,95864.00
2023-05-23T09:24:21.861Z,95864.00
2023-05-23T09:25:22.866Z,95862.00
2023-05-23T09:26:22.877Z,95864.00
2023-05-23T09:27:22.887Z,95862.00
2023-05-23T09:28:22.888Z,95864.00
2023-05-23T09:29:22.902Z,95864.00
2023-05-23T09:30:22.904Z,95866.00
2023-05-23T09:31:22.976Z,95862.00
2023-05-23T09:32:22.073Z,95864.00
2023-05-23T09:33:22.975Z,95862.00
2023-05-23T09:34:21.962Z,95864.00
2023-05-23T09:35:21.973Z,95862.00
2023-05-23T09:36:21.999Z,95864.00
2023-05-23T09:37:23.025Z,95864.00
2023-05-23T09:38:22.047Z,95862.00
2023-05-23T09:39:23.036Z,95862.00
2023-05-23T09:40:23.431Z,95862.00
2023-05-23T09:41:22.041Z,95862.00
2023-05-23T09:42:23.111Z,95862.00
2023-05-23T09:43:22.091Z,95858.00
2023-05-23T09:44:22.110Z,95860.00
2023-05-23T09:45:22.125Z,95854.00
2023-05-23T09:46:23.276Z,95847.00
2023-05-23T09:47:22.292Z,95853.00
2023-05-23T09:48:23.653Z,95854.00
2023-05-23T09:49:23.178Z,95853.00
2023-05-23T09:50:22.178Z,95854.00
2023-05-23T09:51:23.211Z,95856.00
2023-05-23T09:52:23.195Z,95854.00
2023-05-23T09:53:23.209Z,95854.00
2023-05-23T09:54:22.145Z,95849.00
2023-05-23T09:55:23.167Z,95851.00
2023-05-23T09:56:23.146Z,95847.00
2023-05-23T09:57:23.148Z,95847.00
2023-05-23T09:58:23.146Z,95847.00
2023-05-23T09:59:23.149Z,95843.00
2023-05-23T10:00:23.161Z,95843.00
2023-05-23T10:01:23.208Z,95841.00
2023-05-23T10:02:28.662Z,95839.00
2023-05-23T10:03:22.124Z,95841.00
2023-05-23T10:04:23.165Z,95837.00
2023-05-23T10:05:23.121Z,95839.00
2023-05-23T10:06:23.126Z,95837.00
2023-05-23T10:07:23.173Z,95837.00
2023-05-23T10:08:22.125Z,95835.00
2023-05-23T10:09:23.136Z,95833.00
2023-05-23T10:10:23.090Z,95833.00
2023-05-23T10:11:23.090Z,95831.00
2023-05-23T10:12:23.091Z,95829.00
2023-05-23T10:13:22.085Z,95833.00
2023-05-23T10:14:22.073Z,95829.00
2023-05-23T10:15:23.086Z,95829.00
2023-05-23T10:16:23.061Z,95827.00
2023-05-23T10:17:23.083Z,95829.00
2023-05-23T10:18:22.037Z,95825.00
2023-05-23T10:19:22.080Z,95825.00
2023-05-23T10:20:23.049Z,95827.00
2023-05-23T10:21:23.035Z,95829.00
2023-05-23T10:22:23.028Z,95825.00
2023-05-23T10:23:22.022Z,95823.00
2023-05-23T10:24:23.001Z,95823.00
2023-05-23T10:25:22.020Z,95821.00
2023-05-23T10:26:22.988Z,95825.00
2023-05-23T10:27:22.981Z,95823.00
2023-05-23T10:28:27.152Z,95823.00
2023-05-23T10:29:22.957Z,95821.00
2023-05-23T10:30:22.949Z,95821.00
2023-05-23T10:31:22.998Z,95815.00
2023-05-23T10:32:22.998Z,95813.00
2023-05-23T10:33:21.987Z,95811.00
2023-05-23T10:34:22.987Z,95809.00
2023-05-23T10:35:23.019Z,95805.00
2023-05-23T10:36:23.021Z,95803.00
2023-05-23T10:37:23.033Z,95801.00
2023-05-23T10:38:22.030Z,95798.00
2023-05-23T10:39:22.016Z,95801.00
2023-05-23T10:40:22.998Z,95796.00
2023-05-23T10:41:23.036Z,95796.00
2023-05-23T10:42:23.019Z,95794.00
2023-05-23T10:43:23.166Z,95794.00
2023-05-23T10:44:23.086Z,95792.00
2023-05-23T10:45:22.159Z,95792.00
2023-05-23T10:46:22.338Z,95792.00
2023-05-23T10:47:22.301Z,95790.00
2023-05-23T10:48:22.318Z,95786.00
2023-05-23T10:49:22.349Z,95784.00
2023-05-23T10:50:24.162Z,95780.00
2023-05-23T10:51:22.473Z,95778.00
2023-05-23T10:52:22.534Z,95778.00
2023-05-23T10:53:22.587Z,95776.00
2023-05-23T10:54:22.641Z,95772.00
2023-05-23T10:55:23.687Z,95772.00
2023-05-23T10:56:22.735Z,95768.00
2023-05-23T10:57:23.870Z,95770.00
2023-05-23T10:58:23.826Z,95770.00
2023-05-23T10:59:23.895Z,95770.00
2023-05-23T11:00:23.930Z,95770.00
2023-05-23T11:01:24.226Z,95770.00
2023-05-23T11:02:24.099Z,95770.00
2023-05-23T11:03:23.110Z,95770.00
2023-05-23T11:04:23.176Z,95770.00
2023-05-23T11:05:23.292Z,95772.00
2023-05-23T11:06:23.187Z,95770.00
2023-05-23T11:07:23.219Z,95770.00
2023-05-23T11:08:29.574Z,95770.00
2023-05-23T11:09:24.277Z,95770.00
2023-05-23T11:10:24.247Z,95770.00
2023-05-23T11:11:24.242Z,95768.00
2023-05-23T11:12:23.212Z,95768.00
2023-05-23T11:13:23.260Z,95770.00
2023-05-23T11:14:24.211Z,95768.00
2023-05-23T11:15:24.194Z,95770.00
2023-05-23T11:16:23.299Z,95764.00
2023-05-23T11:17:24.283Z,95760.00
2023-05-23T11:18:24.187Z,95760.00
2023-05-23T11:19:24.222Z,95754.00
2023-05-23T11:20:24.165Z,95756.00
2023-05-23T11:21:23.158Z,95754.00
2023-05-23T11:22:24.148Z,95751.00
2023-05-23T11:23:24.227Z,95751.00
2023-05-23T11:24:23.168Z,95749.00
2023-05-23T11:25:23.139Z,95749.00
2023-05-23T11:26:23.130Z,95749.00
2023-05-23T11:27:24.114Z,95749.00
2023-05-23T11:28:24.127Z,95747.00
2023-05-23T11:29:23.133Z,95745.00
2023-05-23T11:30:24.093Z,95749.00
2023-05-23T11:31:24.121Z,95749.00
2023-05-23T11:32:23.142Z,95749.00
2023-05-23T11:33:23.102Z,95747.00
2023-05-23T11:34:24.070Z,95747.00
2023-05-23T11:35:24.079Z,95747.00
2023-05-23T11:36:23.085Z,95747.00
2023-05-23T11:37:25.935Z,95747.00
2023-05-23T11:38:24.182Z,95747.00
2023-05-23T11:39:24.109Z,95745.00
2023-05-23T11:40:23.040Z,95745.00
2023-05-23T11:41:23.036Z,95747.00
2023-05-23T11:42:24.032Z,95747.00
2023-05-23T11:43:23.031Z,95745.00
2023-05-23T11:44:24.017Z,95743.00